Time,TemperatureF,DewpointF,PressureIn,WindDirection,WindDirectionDegrees,WindSpeedMPH,WindSpeedGustMPH,Humidity,HourlyPrecipIn,Conditions,Clouds,dailyrainin,SoftwareType,DateUTC
2013-02-18 00:13:00,68.9,65.0,30.00,SE,135,0.0,1.0,87,0.00,,,0.00,weatherlink.com 1.10,2013-02-18 04:13:00,
2013-02-18 00:28:00,68.6,65.0,30.00,SE,136,0.0,1.0,89,0.00,,,0.00,weatherlink.com 1.10,2013-02-18 04:28:00,
2013-02-18 00:44:00,68.6,65.0,29.99,SE,136,0.0,0.0,89,0.00,,,0.00,weatherlink.com 1.10,2013-02-18 04:44:00,
2013-02-18 00:58:00,68.3,65.0,29.99,SE,135,0.0,1.0,88,0.00,,,0.00,weatherlink.com 1.10,2013-02-18 04:58:00,
2013-02-18 01:14:00,67.7,64.0,29.99,SE,135,0.0,1.0,89,0.00,,,0.00,weatherlink.com 1.10,2013-02-18 05:14:00,
2013-02-18 01:28:00,67.4,64.0,29.99,SE,135,0.0,1.0,89,0.00,,,0.00,weatherlink.com 1.10,2013-02-18 05:28:00,
2013-02-18 01:43:00,67.3,64.0,29.98,SE,136,0.0,1.0,90,0.00,,,0.00,weatherlink.com 1.10,2013-02-18 05:43:00,
2013-02-18 01:59:00,67.1,64.0,29.98,SE,135,0.0,1.0,90,0.00,,,0.00,weatherlink.com 1.10,2013-02-18 05:59:00,
2013-02-18 02:14:00,67.2,64.0,29.98,SE,136,0.0,1.0,90,0.00,,,0.00,weatherlink.com 1.10,2013-02-18 06:14:00,
2013-02-18 02:29:00,66.9,64.0,29.98,SE,135,0.0,1.0,90,0.00,,,0.00,weatherlink.com 1.10,2013-02-18 06:29:00,
2013-02-18 02:44:00,66.7,64.0,29.97,SE,145,0.0,1.0,91,0.00,,,0.00,weatherlink.com 1.10,2013-02-18 06:44:00,
2013-02-18 02:59:00,66.5,64.0,29.97,SE,145,0.0,1.0,91,0.00,,,0.00,weatherlink.com 1.10,2013-02-18 06:59:00,
2013-02-18 06:34:00,66.6,65.0,30.01,ENE,69,0.0,1.0,93,0.00,,,0.00,weatherlink.com 1.10,2013-02-18 10:34:00,
2013-02-18 06:44:00,66.7,65.0,30.02,ENE,70,0.0,1.0,93,0.00,,,0.00,weatherlink.com 1.10,2013-02-18 10:44:00,
2013-02-18 06:59:00,66.8,65.0,30.02,East,84,1.0,1.0,93,0.00,,,0.00,weatherlink.com 1.10,2013-02-18 10:59:00,
2013-02-18 07:14:00,67.2,65.0,30.03,East,83,0.0,1.0,93,0.00,,,0.00,weatherlink.com 1.10,2013-02-18 11:14:00,
2013-02-18 07:29:00,67.7,66.0,30.03,East,83,0.0,1.0,93,0.00,,,0.00,weatherlink.com 1.10,2013-02-18 11:29:00,
2013-02-18 07:44:00,68.0,66.0,30.04,East,83,0.0,1.0,92,0.00,,,0.00,weatherlink.com 1.10,2013-02-18 11:44:00,
2013-02-18 07:59:00,68.4,66.0,30.04,East,84,0.0,0.0,92,0.00,,,0.00,weatherlink.com 1.10,2013-02-18 11:59:00,
2013-02-18 08:14:00,69.3,67.0,30.05,East,83,0.0,1.0,92,0.00,,,0.00,weatherlink.com 1.10,2013-02-18 12:14:00,
2013-02-18 08:29:00,70.6,68.0,30.05,East,83,0.0,0.0,91,0.00,,,0.00,weatherlink.com 1.10,2013-02-18 12:29:00,
2013-02-18 08:44:00,73.2,69.0,30.05,ENE,68,0.0,1.0,87,0.00,,,0.00,weatherlink.com 1.10,2013-02-18 12:44:00,
2013-02-18 08:59:00,75.1,70.0,30.06,North,4,0.0,1.0,84,0.00,,,0.00,weatherlink.com 1.10,2013-02-18 12:59:00,
2013-02-18 09:14:00,76.8,71.0,30.06,North,8,1.0,1.0,81,0.00,,,0.00,weatherlink.com 1.10,2013-02-18 13:14:00,
2013-02-18 09:29:00,76.8,71.0,30.07,North,7,1.0,1.0,83,0.00,,,0.00,weatherlink.com 1.10,2013-02-18 13:29:00,
2013-02-18 09:44:00,77.2,72.0,30.07,ESE,122,0.0,2.0,83,0.00,,,0.00,weatherlink.com 1.10,2013-02-18 13:44:00,
2013-02-18 09:59:00,77.4,72.0,30.07,ESE,123,0.0,1.0,84,0.00,,,0.00,weatherlink.com 1.10,2013-02-18 13:59:00,
2013-02-18 10:15:00,77.7,73.0,30.07,ENE,63,5.0,10.0,84,0.00,,,0.00,weatherlink.com 1.10,2013-02-18 14:15:00,
2013-02-18 10:29:00,74.9,71.0,30.08,ESE,115,1.0,10.0,86,0.01,,,0.01,weatherlink.com 1.10,2013-02-18 14:29:00,
2013-02-18 10:45:00,74.6,71.0,30.08,East,98,0.0,4.0,88,0.01,,,0.01,weatherlink.com 1.10,2013-02-18 14:45:00,
2013-02-18 10:59:00,76.4,73.0,30.07,SE,131,1.0,3.0,88,0.01,,,0.01,weatherlink.com 1.10,2013-02-18 14:59:00,
2013-02-18 11:15:00,77.9,72.0,30.07,ENE,70,6.0,10.0,82,0.01,,,0.01,weatherlink.com 1.10,2013-02-18 15:15:00,
2013-02-18 11:29:00,77.8,72.0,30.06,East,90,2.0,5.0,81,0.00,,,0.01,weatherlink.com 1.10,2013-02-18 15:29:00,
2013-02-18 11:44:00,78.0,73.0,30.06,East,85,5.0,10.0,83,0.00,,,0.01,weatherlink.com 1.10,2013-02-18 15:44:00,
2013-02-18 12:00:00,77.6,73.0,30.05,East,79,6.0,6.0,86,0.00,,,0.01,weatherlink.com 1.10,2013-02-18 16:00:00,
2013-02-18 12:15:00,79.6,73.0,30.04,NW,313,4.0,7.0,81,0.00,,,0.01,weatherlink.com 1.10,2013-02-18 16:15:00,
2013-02-18 12:30:00,80.3,71.0,30.04,NE,38,5.0,10.0,74,0.00,,,0.01,weatherlink.com 1.10,2013-02-18 16:30:00,
2013-02-18 12:45:00,81.5,70.0,30.03,NE,45,8.0,13.0,69,0.00,,,0.01,weatherlink.com 1.10,2013-02-18 16:45:00,
2013-02-18 13:00:00,81.8,71.0,30.03,ENE,68,7.0,14.0,69,0.00,,,0.01,weatherlink.com 1.10,2013-02-18 17:00:00,
2013-02-18 13:15:00,81.8,71.0,30.02,ENE,58,8.0,12.0,70,0.00,,,0.01,weatherlink.com 1.10,2013-02-18 17:15:00,
2013-02-18 13:30:00,82.3,71.0,30.02,ENE,68,6.0,12.0,69,0.00,,,0.01,weatherlink.com 1.10,2013-02-18 17:30:00,
2013-02-18 13:45:00,82.2,71.0,30.01,NE,37,5.0,12.0,69,0.00,,,0.01,weatherlink.com 1.10,2013-02-18 17:45:00,
2013-02-18 14:00:00,82.2,72.0,30.00,NE,53,6.0,11.0,71,0.00,,,0.01,weatherlink.com 1.10,2013-02-18 18:00:00,
2013-02-18 14:15:00,82.2,72.0,30.00,NE,44,8.0,12.0,71,0.00,,,0.01,weatherlink.com 1.10,2013-02-18 18:15:00,
2013-02-18 14:30:00,81.7,71.0,30.00,ENE,58,5.0,13.0,69,0.00,,,0.01,weatherlink.com 1.10,2013-02-18 18:30:00,
2013-02-18 14:45:00,82.3,70.0,29.99,East,94,6.0,12.0,66,0.00,,,0.01,weatherlink.com 1.10,2013-02-18 18:45:00,
2013-02-18 15:00:00,82.1,71.0,29.99,ENE,65,4.0,11.0,70,0.00,,,0.01,weatherlink.com 1.10,2013-02-18 19:00:00,
2013-02-18 15:15:00,81.5,71.0,29.98,NE,53,3.0,14.0,71,0.00,,,0.01,weatherlink.com 1.10,2013-02-18 19:15:00,
2013-02-18 15:30:00,80.9,72.0,29.98,East,80,5.0,12.0,74,0.00,,,0.01,weatherlink.com 1.10,2013-02-18 19:30:00,
2013-02-18 15:45:00,80.3,71.0,29.98,ENE,68,13.0,13.0,74,0.00,,,0.01,weatherlink.com 1.10,2013-02-18 19:45:00,
2013-02-18 16:00:00,81.0,72.0,29.98,NE,46,9.0,11.0,74,0.00,,,0.01,weatherlink.com 1.10,2013-02-18 20:00:00,
2013-02-18 16:15:00,80.9,69.0,29.98,East,84,8.0,12.0,68,0.00,,,0.01,weatherlink.com 1.10,2013-02-18 20:15:00,
2013-02-18 16:30:00,80.1,71.0,29.98,East,93,7.0,12.0,73,0.00,,,0.01,weatherlink.com 1.10,2013-02-18 20:30:00,
2013-02-18 16:45:00,79.6,71.0,29.98,East,82,9.0,12.0,74,0.00,,,0.01,weatherlink.com 1.10,2013-02-18 20:45:00,
2013-02-18 17:00:00,79.5,71.0,29.98,North,357,4.0,10.0,76,0.00,,,0.01,weatherlink.com 1.10,2013-02-18 21:00:00,
2013-02-18 17:15:00,79.3,72.0,29.99,ENE,75,7.0,13.0,78,0.00,,,0.01,weatherlink.com 1.10,2013-02-18 21:15:00,
2013-02-18 17:30:00,78.6,71.0,29.99,East,88,7.0,12.0,78,0.00,,,0.01,weatherlink.com 1.10,2013-02-18 21:30:00,
2013-02-18 17:45:00,78.4,71.0,29.99,East,93,3.0,10.0,79,0.00,,,0.01,weatherlink.com 1.10,2013-02-18 21:45:00,
2013-02-18 18:00:00,78.4,71.0,30.00,East,83,6.0,11.0,79,0.00,,,0.01,weatherlink.com 1.10,2013-02-18 22:00:00,
2013-02-18 18:15:00,78.1,72.0,30.00,ESE,105,8.0,8.0,80,0.00,,,0.01,weatherlink.com 1.10,2013-02-18 22:15:00,
2013-02-18 18:30:00,77.9,71.0,30.00,East,84,8.0,12.0,80,0.00,,,0.01,weatherlink.com 1.10,2013-02-18 22:30:00,
2013-02-18 18:45:00,77.8,70.0,29.99,East,88,3.0,10.0,77,0.00,,,0.01,weatherlink.com 1.10,2013-02-18 22:45:00,
2013-02-18 19:00:00,77.6,70.0,30.00,NNE,32,3.0,8.0,78,0.00,,,0.01,weatherlink.com 1.10,2013-02-18 23:00:00,
2013-02-18 19:15:00,77.3,70.0,30.00,ENE,77,4.0,5.0,79,0.00,,,0.01,weatherlink.com 1.10,2013-02-18 23:15:00,
2013-02-18 19:31:00,77.1,70.0,30.01,East,91,1.0,3.0,79,0.00,,,0.01,weatherlink.com 1.10,2013-02-18 23:31:00,
2013-02-18 19:46:00,77.1,70.0,30.01,ESE,112,0.0,2.0,79,0.00,,,0.01,weatherlink.com 1.10,2013-02-18 23:46:00,
2013-02-18 20:00:00,77.1,70.0,30.01,East,83,3.0,4.0,79,0.00,,,0.01,weatherlink.com 1.10,2013-02-19 00:00:00,
2013-02-18 20:15:00,77.3,70.0,30.02,ENE,75,1.0,6.0,79,0.00,,,0.01,weatherlink.com 1.10,2013-02-19 00:15:00,
2013-02-18 20:30:00,77.3,71.0,30.02,ENE,57,2.0,7.0,80,0.00,,,0.01,weatherlink.com 1.10,2013-02-19 00:30:00,
2013-02-18 20:45:00,77.3,71.0,30.02,ESE,107,0.0,2.0,80,0.00,,,0.01,weatherlink.com 1.10,2013-02-19 00:45:00,
2013-02-18 21:01:00,77.2,71.0,30.02,East,101,1.0,3.0,80,0.00,,,0.01,weatherlink.com 1.10,2013-02-19 01:01:00,
2013-02-18 21:15:00,77.0,70.0,30.02,East,98,1.0,3.0,80,0.00,,,0.01,weatherlink.com 1.10,2013-02-19 01:15:00,
2013-02-18 21:30:00,76.9,70.0,30.03,East,101,3.0,5.0,79,0.00,,,0.01,weatherlink.com 1.10,2013-02-19 01:30:00,
2013-02-18 21:45:00,76.8,70.0,30.03,East,82,1.0,3.0,79,0.00,,,0.01,weatherlink.com 1.10,2013-02-19 01:45:00,
2013-02-18 22:01:00,76.6,70.0,30.03,East,96,2.0,4.0,80,0.00,,,0.01,weatherlink.com 1.10,2013-02-19 02:01:00,
2013-02-18 22:16:00,76.3,70.0,30.03,SE,131,0.0,2.0,81,0.00,,,0.01,weatherlink.com 1.10,2013-02-19 02:16:00,
2013-02-18 22:30:00,76.0,70.0,30.04,South,186,0.0,1.0,82,0.00,,,0.01,weatherlink.com 1.10,2013-02-19 02:30:00,
2013-02-18 23:00:00,75.1,70.0,30.04,SE,129,0.0,2.0,84,0.00,,,0.01,weatherlink.com 1.10,2013-02-19 03:00:00,
2013-02-18 23:15:00,74.9,70.0,30.04,ESE,120,0.0,2.0,85,0.00,,,0.01,weatherlink.com 1.10,2013-02-19 03:15:00,
2013-02-18 23:30:00,74.6,70.0,30.03,ESE,117,0.0,1.0,86,0.00,,,0.01,weatherlink.com 1.10,2013-02-19 03:30:00,
2013-02-18 23:45:00,74.5,70.0,30.03,ESE,112,0.0,1.0,86,0.00,,,0.01,weatherlink.com 1.10,2013-02-19 03:45:00,